Aviation Digital Data Service (ADDS)

Output produced by METARs form (1914 UTC 30 July 2014)
found at http://aviationweather.gov/adds/metars/
 
KHUL 301720Z 3018/3118 17005KT P6SM SCT100